Time;durP1;ratioP1;P1;durP2;ratioP2;P2;SDS_P1;SDS_P2;PMS_P1;PMS_P2;Temp;Humidity;BMP_temperature;BMP_pressure;BME280_temperature;BME280_humidity;BME280_pressure;Samples;Min_cycle;Max_cycle;Signal;HPM_P1;HPM_P2
2022/01/09 00:01:37;;;;;;;82.50;34.97;;;;;;;;;;4936539;29;20658;-84
2022/01/09 00:04:03;;;;;;;89.30;34.23;;;;;;;;;;4935167;29;20193;-84
2022/01/09 00:06:29;;;;;;;106.00;40.10;;;;;;;;;;4935140;29;20183;-84
2022/01/09 00:08:55;;;;;;;88.97;34.60;;;;;;;;;;4936325;29;20196;-83
2022/01/09 00:11:26;;;;;;;84.33;33.63;;;;;;;;;;4935154;29;20195;-84
2022/01/09 00:13:56;;;;;;;78.57;30.57;;;-0.50;99.90;;;;;;4945053;29;20175;-83
2022/01/09 00:16:23;;;;;;;66.07;28.93;;;-0.50;99.90;;;;;;4960351;29;20167;-83
2022/01/09 00:18:50;;;;;;;65.37;27.97;;;;;;;;;;4950826;29;20190;-84
2022/01/09 00:21:16;;;;;;;61.63;27.37;;;;;;;;;;4936379;29;20215;-84
2022/01/09 00:23:42;;;;;;;60.07;26.13;;;;;;;;;;4936412;29;20186;-85
2022/01/09 00:26:09;;;;;;;63.50;28.13;;;-0.60;99.90;;;;;;4937037;29;20225;-84
2022/01/09 00:28:35;;;;;;;62.73;27.47;;;-0.50;99.90;;;;;;4937010;29;20179;-84
2022/01/09 00:31:01;;;;;;;70.90;29.83;;;;;;;;;;4919103;29;20189;-84
2022/01/09 00:33:28;;;;;;;59.87;27.17;;;;;;;;;;4936073;29;20672;-84
2022/01/09 00:35:54;;;;;;;64.57;27.47;;;;;;;;;;4935722;29;20192;-84
2022/01/09 00:38:20;;;;;;;58.07;25.50;;;;;;;;;;4935799;29;20289;-85
2022/01/09 00:40:46;;;;;;;59.50;24.80;;;;;;;;;;4936716;29;20269;-85
2022/01/09 00:43:12;;;;;;;54.87;23.47;;;;;;;;;;4938787;29;20194;-87
2022/01/09 00:45:40;;;;;;;56.67;22.63;;;-0.60;99.90;;;;;;4958059;29;20187;-85
2022/01/09 00:48:06;;;;;;;52.00;21.47;;;;;;;;;;4958869;29;20248;-84
2022/01/09 00:50:33;;;;;;;55.43;23.63;;;;;;;;;;4942650;29;20199;-84
2022/01/09 00:52:59;;;;;;;50.93;21.13;;;;;;;;;;4952917;29;20271;-84
2022/01/09 00:55:25;;;;;;;48.27;21.10;;;;;;;;;;4938478;29;20187;-84
2022/01/09 00:57:51;;;;;;;46.53;21.10;;;;;;;;;;4938129;29;20656;-84
2022/01/09 01:00:17;;;;;;;49.57;23.03;;;;;;;;;;4937802;29;20725;-85
2022/01/09 01:02:44;;;;;;;50.83;22.60;;;;;;;;;;4938307;29;20250;-85
2022/01/09 01:05:10;;;;;;;53.03;22.50;;;-0.60;99.90;;;;;;4938236;29;20183;-86
2022/01/09 01:07:36;;;;;;;53.90;23.40;;;;;;;;;;4922429;29;20185;-85
2022/01/09 01:10:03;;;;;;;48.13;21.27;;;-0.80;99.90;;;;;;4922581;29;20191;-84
2022/01/09 01:12:30;;;;;;;48.80;22.67;;;-0.60;99.90;;;;;;4937980;29;20191;-85
2022/01/09 01:14:56;;;;;;;59.87;25.60;;;;;;;;;;4922294;29;20190;-85
2022/01/09 01:17:23;;;;;;;56.13;24.30;;;;;;;;;;4939310;29;20177;-85
2022/01/09 01:19:49;;;;;;;68.03;29.57;;;;;;;;;;4937808;29;20651;-85
2022/01/09 01:22:15;;;;;;;52.93;25.17;;;;;;;;;;4937640;29;20226;-85
2022/01/09 01:24:44;;;;;;;49.43;22.93;;;-0.60;99.90;;;;;;4939541;29;20182;-85
2022/01/09 01:27:10;;;;;;;54.10;23.13;;;;;;;;;;4939356;29;20189;-85
2022/01/09 01:29:37;;;;;;;51.50;23.70;;;;;;;;;;4938871;29;20191;-84
2022/01/09 01:32:04;;;;;;;52.13;23.30;;;-0.80;99.90;;;;;;4922128;29;20285;-85
2022/01/09 01:34:30;;;;;;;52.20;25.27;;;;;;;;;;4938648;29;20647;-85
2022/01/09 01:36:56;;;;;;;50.60;22.93;;;;;;;;;;4938714;29;20192;-85
2022/01/09 01:39:22;;;;;;;44.07;21.80;;;;;;;;;;4938394;29;20196;-85
2022/01/09 01:41:48;;;;;;;49.60;23.27;;;;;;;;;;4938593;29;20204;-85
2022/01/09 01:44:15;;;;;;;44.47;20.97;;;;;;;;;;4921652;29;20629;-84
2022/01/09 01:46:41;;;;;;;41.17;19.27;;;;;;;;;;4921701;29;20246;-84
2022/01/09 01:49:11;;;;;;;42.60;19.57;;;;;;;;;;4938981;29;20663;-84
2022/01/09 01:51:43;;;;;;;46.03;19.80;;;-0.60;99.90;;;;;;4938290;29;20221;-84
2022/01/09 01:54:12;;;;;;;49.93;23.13;;;-0.60;99.90;;;;;;4921679;29;20172;-85
2022/01/09 01:56:38;;;;;;;116.80;47.83;;;;;;;;;;4921133;29;20199;-85
2022/01/09 01:59:04;;;;;;;89.10;36.77;;;;;;;;;;4936676;29;20180;-85
2022/01/09 02:01:30;;;;;;;80.13;32.00;;;;;;;;;;4937137;29;20254;-85
2022/01/09 02:03:56;;;;;;;83.10;33.70;;;;;;;;;;4937001;29;20193;-85
2022/01/09 02:06:23;;;;;;;61.40;30.23;;;-0.60;99.90;;;;;;4937128;29;20195;-84
2022/01/09 02:08:49;;;;;;;60.07;27.43;;;;;;;;;;4937437;29;20182;-84
2022/01/09 02:15:25;;;;;;;51.43;23.60;;;-0.60;99.90;;;;;;4937494;29;20299;-84
2022/01/09 02:21:13;;;;;;;43.53;20.73;;;-0.60;99.90;;;;;;4937535;29;20318;-84
2022/01/09 02:38:19;;;;;;;48.57;20.10;;;-0.60;99.90;;;;;;4937300;29;20545;-84
2022/01/09 02:44:08;;;;;;;59.73;25.60;;;-0.70;99.90;;;;;;4937241;29;20211;-84
2022/01/09 02:49:07;;;;;;;47.63;21.73;;;-0.60;99.90;;;;;;4937247;29;20520;-84
2022/01/09 02:51:39;;;;;;;54.47;22.17;;;-0.40;99.90;;;;;;4937218;29;20189;-85
2022/01/09 02:56:54;;;;;;;66.10;29.00;;;;;;;;;;4905444;29;20244;-85
2022/01/09 02:59:20;;;;;;;61.33;31.57;;;;;;;;;;4935630;29;20237;-84
2022/01/09 03:01:46;;;;;;;54.47;27.80;;;;;;;;;;4937060;29;20210;-84
2022/01/09 03:04:12;;;;;;;56.97;25.43;;;;;;;;;;4936198;29;20278;-84
2022/01/09 03:06:38;;;;;;;43.77;21.13;;;;;;;;;;4936774;29;20180;-84
2022/01/09 03:09:06;;;;;;;45.20;21.40;;;;;;;;;;4935758;29;20211;-84
2022/01/09 03:11:33;;;;;;;43.03;19.90;;;;;;;;;;4920700;29;20227;-84
2022/01/09 03:14:01;;;;;;;43.87;20.30;;;-0.70;99.90;;;;;;4935778;29;20223;-84
2022/01/09 03:16:27;;;;;;;45.10;19.63;;;;;;;;;;4904125;29;20683;-84
2022/01/09 03:18:53;;;;;;;45.53;21.80;;;;;;;;;;4936946;29;20211;-84
2022/01/09 03:21:19;;;;;;;39.27;20.53;;;;;;;;;;4936033;29;20257;-84
2022/01/09 03:23:46;;;;;;;43.00;18.87;;;;;;;;;;4936157;29;20226;-84
2022/01/09 03:29:39;;;;;;;40.27;19.50;;;-0.70;99.90;;;;;;4936597;29;20173;-84
2022/01/09 03:35:28;;;;;;;43.47;20.13;;;-0.70;99.90;;;;;;4936483;29;20709;-84
2022/01/09 03:41:16;;;;;;;48.70;17.97;;;-0.70;99.90;;;;;;4936414;29;20233;-84
2022/01/09 03:43:42;;;;;;;45.03;19.20;;;;;;;;;;4919445;29;20202;-85
2022/01/09 03:46:08;;;;;;;42.80;20.03;;;;;;;;;;4937020;29;20184;-85
2022/01/09 03:48:34;;;;;;;42.60;19.23;;;;;;;;;;4937034;29;20187;-85
2022/01/09 03:51:02;;;;;;;54.43;23.20;;;;;;;;;;4903778;29;20648;-85
2022/01/09 03:53:30;;;;;;;60.67;27.50;;;;;;;;;;4903840;29;20189;-85
2022/01/09 03:55:56;;;;;;;45.40;22.03;;;;;;;;;;4919817;29;20272;-85
2022/01/09 03:58:22;;;;;;;47.23;21.53;;;;;;;;;;4935275;29;20194;-84
2022/01/09 04:00:48;;;;;;;46.10;20.10;;;;;;;;;;4936429;28;20248;-85
2022/01/09 04:03:14;;;;;;;49.50;22.20;;;;;;;;;;4935643;29;20190;-85
2022/01/09 04:05:40;;;;;;;40.73;19.87;;;;;;;;;;4951055;29;20179;-95
2022/01/09 04:08:06;;;;;;;43.73;20.23;;;;;;;;;;4960027;29;20169;-86
2022/01/09 04:10:39;;;;;;;46.77;20.77;;;;;;;;;;4945172;29;20239;-85
2022/01/09 04:13:05;;;;;;;44.67;21.60;;;;;;;;;;4935099;29;20548;-85
2022/01/09 04:15:31;;;;;;;62.33;27.87;;;;;;;;;;4936265;29;20652;-84
2022/01/09 04:17:58;;;;;;;129.27;45.70;;;;;;;;;;4936172;29;20191;-84
2022/01/09 04:20:26;;;;;;;66.50;27.60;;;-1.00;99.90;;;;;;4919043;29;20211;-83
2022/01/09 04:22:52;;;;;;;43.83;20.63;;;;;;;;;;4937526;29;20165;-84
2022/01/09 04:25:19;;;;;;;53.93;24.47;;;-1.00;99.90;;;;;;4938737;29;20197;-84
2022/01/09 04:27:45;;;;;;;56.47;26.40;;;;;;;;;;4923233;29;20266;-84
2022/01/09 04:30:12;;;;;;;55.50;25.57;;;;;;;;;;4906974;29;20198;-84
2022/01/09 04:32:38;;;;;;;54.57;26.57;;;-1.10;99.90;;;;;;4939822;29;20218;-84
2022/01/09 04:35:04;;;;;;;50.90;22.87;;;-0.90;99.90;;;;;;4938492;29;20192;-84
2022/01/09 04:37:32;;;;;;;52.33;23.57;;;;;;;;;;4940006;29;20184;-84
2022/01/09 04:39:59;;;;;;;91.13;36.97;;;;;;;;;;4939597;29;20181;-85
2022/01/09 04:42:33;;;;;;;68.53;27.13;;;;;;;;;;4939292;29;20260;-86
2022/01/09 04:44:59;;;;;;;47.80;24.87;;;;;;;;;;4939622;29;20211;-86
2022/01/09 04:47:25;;;;;;;44.63;22.63;;;;;;;;;;4938326;29;20184;-85
2022/01/09 04:49:51;;;;;;;50.07;21.57;;;;;;;;;;4906812;29;20192;-85
2022/01/09 04:52:21;;;;;;;45.40;20.23;;;;;;;;;;4938867;29;20217;-85
2022/01/09 04:54:47;;;;;;;45.33;18.97;;;;;;;;;;4923086;29;20219;-85
2022/01/09 04:57:13;;;;;;;47.90;21.77;;;;;;;;;;4922604;29;20188;-85
2022/01/09 04:59:39;;;;;;;43.00;20.13;;;;;;;;;;4938681;29;20241;-84
2022/01/09 05:02:06;;;;;;;45.73;20.83;;;;;;;;;;4938840;29;20220;-85
2022/01/09 05:04:32;;;;;;;40.93;19.30;;;;;;;;;;4937931;29;20191;-84
2022/01/09 05:06:58;;;;;;;56.43;24.40;;;;;;;;;;4922236;29;20696;-84
2022/01/09 05:09:24;;;;;;;55.83;26.10;;;;;;;;;;4922245;29;20270;-84
2022/01/09 05:11:50;;;;;;;63.03;27.67;;;;;;;;;;4938972;29;20193;-84
2022/01/09 05:14:16;;;;;;;56.50;24.53;;;;;;;;;;4906205;29;20243;-84
2022/01/09 05:16:44;;;;;;;54.57;22.93;;;-1.60;99.90;;;;;;4937672;29;20189;-83
2022/01/09 05:19:18;;;;;;;52.70;24.23;;;;;;;;;;4907349;29;20177;-83
2022/01/09 05:21:44;;;;;;;44.63;20.53;;;-1.80;99.90;;;;;;4940475;29;20202;-83
2022/01/09 05:24:10;;;;;;;48.23;21.03;;;;;;;;;;4937276;29;20541;-84
2022/01/09 05:26:36;;;;;;;60.30;23.87;;;;;;;;;;4937248;29;20251;-84
2022/01/09 05:29:02;;;;;;;57.97;22.67;;;;;;;;;;4938536;29;20704;-84
2022/01/09 05:31:28;;;;;;;48.60;21.43;;;;;;;;;;4937383;29;20201;-85
2022/01/09 05:33:54;;;;;;;60.90;23.50;;;;;;;;;;4938462;29;20216;-83
2022/01/09 05:36:21;;;;;;;54.37;24.10;;;;;;;;;;4906484;29;20221;-84
2022/01/09 05:38:47;;;;;;;53.67;23.57;;;;;;;;;;4937419;29;20187;-83
2022/01/09 05:41:13;;;;;;;55.60;22.47;;;;;;;;;;4921703;29;20235;-83
2022/01/09 05:43:40;;;;;;;56.53;24.07;;;;;;;;;;4937253;29;20180;-83
2022/01/09 05:46:06;;;;;;;54.17;24.13;;;;;;;;;;4938360;29;20178;-83
2022/01/09 05:48:32;;;;;;;55.53;23.50;;;;;;;;;;4936885;29;20191;-84
2022/01/09 05:50:58;;;;;;;51.07;23.70;;;;;;;;;;4937950;29;20552;-85
2022/01/09 05:53:24;;;;;;;48.17;23.27;;;;;;;;;;4937212;29;20192;-84
2022/01/09 05:55:50;;;;;;;61.17;24.03;;;;;;;;;;4938603;29;20291;-83
2022/01/09 05:58:16;;;;;;;52.07;23.27;;;;;;;;;;4937097;29;20206;-85
2022/01/09 06:00:42;;;;;;;48.83;21.77;;;;;;;;;;4922415;29;20244;-85
2022/01/09 06:03:08;;;;;;;49.17;23.50;;;;;;;;;;4902678;29;20186;-85
2022/01/09 06:05:34;;;;;;;47.67;22.83;;;;;;;;;;4902682;29;20186;-86
2022/01/09 06:08:00;;;;;;;50.23;23.47;;;;;;;;;;4918678;29;20195;-85
2022/01/09 06:10:26;;;;;;;59.53;24.23;;;;;;;;;;4918605;29;20189;-85
2022/01/09 06:12:52;;;;;;;50.90;23.40;;;;;;;;;;4902116;29;20630;-86
2022/01/09 06:15:18;;;;;;;58.03;24.17;;;;;;;;;;4901865;29;20185;-85
2022/01/09 06:17:45;;;;;;;61.57;24.63;;;-2.70;99.90;;;;;;4902010;29;20188;-85
2022/01/09 06:20:13;;;;;;;57.13;24.43;;;-2.70;99.90;;;;;;4918518;29;20198;-85
2022/01/09 06:22:39;;;;;;;62.90;25.87;;;;;;;;;;4918505;29;20190;-86
2022/01/09 06:25:06;;;;;;;53.50;23.50;;;-3.00;99.90;;;;;;4901651;29;20199;-86
2022/01/09 06:27:32;;;;;;;55.70;24.67;;;;;;;;;;4901327;29;20194;-85
2022/01/09 06:29:58;;;;;;;57.03;26.20;;;;;;;;;;4901596;29;20701;-86
2022/01/09 06:32:24;;;;;;;62.60;25.93;;;;;;;;;;4918405;29;20188;-85
2022/01/09 06:34:51;;;;;;;63.10;26.60;;;;;;;;;;4901383;29;20192;-85
2022/01/09 06:37:17;;;;;;;64.53;27.97;;;;;;;;;;4918702;29;20223;-85
2022/01/09 06:39:43;;;;;;;62.40;27.27;;;-3.00;99.90;;;;;;4918595;29;20231;-85
2022/01/09 06:42:10;;;;;;;61.07;26.40;;;-3.10;99.90;;;;;;4901302;29;20226;-84
2022/01/09 06:44:36;;;;;;;63.00;26.13;;;;;;;;;;4885943;29;20192;-85
2022/01/09 06:47:03;;;;;;;66.87;28.93;;;;;;;;;;4901050;29;20193;-86
2022/01/09 06:49:29;;;;;;;64.47;27.73;;;;;;;;;;4901327;29;20185;-85
2022/01/09 06:51:55;;;;;;;60.40;27.70;;;;;;;;;;4901727;29;20199;-84
2022/01/09 06:54:21;;;;;;;61.77;27.33;;;;;;;;;;4900196;29;20202;-85
2022/01/09 06:56:47;;;;;;;68.07;27.57;;;;;;;;;;4886190;29;20224;-84
2022/01/09 06:59:13;;;;;;;64.53;27.30;;;;;;;;;;4918071;29;20249;-85
2022/01/09 07:01:39;;;;;;;74.20;28.80;;;;;;;;;;4900276;29;20322;-84
2022/01/09 07:04:05;;;;;;;66.67;29.07;;;;;;;;;;4887271;29;20204;-84
2022/01/09 07:06:32;;;;;;;74.80;32.07;;;;;;;;;;4916920;29;20196;-87
2022/01/09 07:08:58;;;;;;;76.73;34.13;;;;;;;;;;4900536;29;20206;-88
2022/01/09 07:11:24;;;;;;;79.17;34.60;;;;;;;;;;4901361;29;20244;-84
2022/01/09 07:13:50;;;;;;;86.47;37.47;;;;;;;;;;4882417;29;20193;-87
2022/01/09 07:16:16;;;;;;;94.47;41.97;;;;;;;;;;4879716;29;20197;-87
2022/01/09 07:18:42;;;;;;;74.97;36.17;;;;;;;;;;4897533;29;20244;-85
2022/01/09 07:21:08;;;;;;;104.10;42.07;;;;;;;;;;4885338;29;20225;-83
2022/01/09 07:23:34;;;;;;;138.80;47.90;;;;;;;;;;4885581;29;20187;-83
2022/01/09 07:26:00;;;;;;;100.00;40.90;;;;;;;;;;4900924;29;20699;-86
2022/01/09 07:28:26;;;;;;;97.10;41.17;;;;;;;;;;4877334;29;20645;-83
2022/01/09 07:30:52;;;;;;;112.77;43.07;;;;;;;;;;4898922;29;20185;-82
2022/01/09 07:33:18;;;;;;;87.03;36.67;;;;;;;;;;4885299;29;20221;-82
2022/01/09 07:35:45;;;;;;;73.37;32.60;;;;;;;;;;4896303;29;20192;-83
2022/01/09 07:38:11;;;;;;;86.00;36.67;;;;;;;;;;4901383;29;20248;-83
2022/01/09 07:40:37;;;;;;;84.80;34.10;;;;;;;;;;4920304;29;20212;-84
2022/01/09 07:43:03;;;;;;;81.73;32.70;;;;;;;;;;4887747;29;20684;-86
2022/01/09 07:45:35;;;;;;;78.47;34.83;;;-3.30;99.90;;;;;;4902374;29;20188;-82
2022/01/09 07:48:02;;;;;;;85.57;36.37;;;;;;;;;;4889939;29;20271;-83
2022/01/09 07:50:28;;;;;;;96.50;40.20;;;;;;;;;;4896929;29;20660;-83
2022/01/09 07:56:20;;;;;;;139.43;53.07;;;;;;;;;;4918671;29;20197;-82
2022/01/09 07:58:46;;;;;;;126.97;52.00;;;;;;;;;;4921788;29;20219;-83
2022/01/09 08:01:12;;;;;;;165.30;60.63;;;;;;;;;;4924522;29;20597;-82
2022/01/09 08:03:38;;;;;;;120.43;48.70;;;;;;;;;;4928909;29;20196;-82
2022/01/09 08:06:04;;;;;;;130.07;48.27;;;;;;;;;;4905448;29;20217;-83
2022/01/09 08:08:30;;;;;;;151.20;56.13;;;;;;;;;;4906916;29;20202;-82
2022/01/09 08:10:56;;;;;;;220.13;77.47;;;;;;;;;;4918542;29;20274;-82
2022/01/09 08:13:22;;;;;;;133.60;53.40;;;;;;;;;;4906549;29;20184;-82
2022/01/09 08:15:49;;;;;;;237.17;86.33;;;;;;;;;;4920452;29;20201;-82
2022/01/09 08:18:15;;;;;;;348.10;116.13;;;;;;;;;;4887030;29;20227;-83
2022/01/09 08:20:41;;;;;;;224.13;82.90;;;;;;;;;;4901724;29;20227;-83
2022/01/09 08:23:07;;;;;;;225.57;85.03;;;;;;;;;;4904657;29;20201;-86
2022/01/09 08:25:33;;;;;;;366.77;119.73;;;;;;;;;;4905721;29;20203;-82
2022/01/09 08:27:59;;;;;;;279.53;102.10;;;;;;;;;;4912280;29;20197;-82
2022/01/09 08:30:25;;;;;;;110.53;47.73;;;;;;;;;;4918771;29;20219;-83
2022/01/09 08:36:18;;;;;;;121.63;48.53;;;;;;;;;;4933072;29;20204;-82
2022/01/09 08:38:44;;;;;;;94.97;42.47;;;;;;;;;;4927052;29;20205;-83
2022/01/09 08:41:10;;;;;;;111.40;43.50;;;;;;;;;;4920183;29;20309;-86
2022/01/09 08:43:36;;;;;;;98.43;38.63;;;;;;;;;;4910032;29;20256;-85
2022/01/09 08:46:02;;;;;;;76.83;34.00;;;;;;;;;;4929789;29;20195;-84
2022/01/09 08:48:28;;;;;;;68.83;32.53;;;;;;;;;;4915837;29;20204;-84
2022/01/09 08:50:54;;;;;;;80.53;34.50;;;;;;;;;;4927327;29;20252;-82
2022/01/09 08:53:23;;;;;;;88.90;39.67;;;-1.20;99.90;;;;;;4910902;29;20675;-88
2022/01/09 08:55:49;;;;;;;140.73;51.43;;;-1.20;99.90;;;;;;4923260;29;20617;-84
2022/01/09 08:58:15;;;;;;;121.20;44.37;;;-1.30;99.90;;;;;;4922559;29;20187;-83
2022/01/09 09:00:41;;;;;;;122.43;42.70;;;;;;;;;;4897389;29;20341;-86
2022/01/09 09:03:09;;;;;;;89.90;33.43;;;-1.40;99.90;;;;;;4924002;29;20251;-84
2022/01/09 09:05:35;;;;;;;67.53;27.03;;;;;;;;;;4940637;29;20199;-84
2022/01/09 09:08:03;;;;;;;56.50;25.53;;;;;;;;;;4920886;29;20195;-84
2022/01/09 09:10:28;;;;;;;76.27;31.03;;;-1.40;99.90;;;;;;4917058;29;20621;-83
2022/01/09 09:12:54;;;;;;;74.63;32.37;;;;;;;;;;4937463;29;20217;-85
2022/01/09 09:15:22;;;;;;;54.53;28.00;;;;;;;;;;4900275;29;20200;-85
2022/01/09 09:17:48;;;;;;;71.57;29.70;;;;;;;;;;4926491;29;20194;-86
2022/01/09 09:20:14;;;;;;;57.80;25.73;;;;;;;;;;4925029;29;20534;-84
2022/01/09 09:22:40;;;;;;;64.00;29.57;;;;;;;;;;4924847;29;20224;-84
2022/01/09 09:25:08;;;;;;;82.10;34.00;;;-0.80;99.90;;;;;;4932470;29;20197;-85
2022/01/09 09:27:34;;;;;;;77.97;34.30;;;;;;;;;;4937661;29;20184;-84
2022/01/09 09:30:02;;;;;;;79.80;37.13;;;-0.60;99.90;;;;;;4913871;29;20203;-86
2022/01/09 09:32:29;;;;;;;100.47;49.43;;;;;;;;;;4912812;29;20230;-87
2022/01/09 09:34:55;;;;;;;54.47;25.70;;;;;;;;;;4940386;29;20191;-86
2022/01/09 09:37:22;;;;;;;53.60;25.53;;;;;;;;;;4922448;29;20203;-86
2022/01/09 09:39:49;;;;;;;54.10;24.70;;;-0.30;99.90;;;;;;4937551;29;20196;-85
2022/01/09 09:42:15;;;;;;;56.83;24.20;;;;;;;;;;4904835;29;20209;-85
2022/01/09 09:44:42;;;;;;;54.73;25.30;;;;;;;;;;4930730;29;20665;-86
2022/01/09 09:47:11;;;;;;;51.57;22.93;;;;;;;;;;4919963;29;20218;-85
2022/01/09 09:49:37;;;;;;;139.73;58.03;;;;;;;;;;4915350;29;20293;-85
2022/01/09 09:52:05;;;;;;;51.23;23.27;;;;;;;;;;4930491;29;20193;-88
2022/01/09 09:54:31;;;;;;;50.37;24.70;;;;;;;;;;4933109;29;20198;-86
2022/01/09 09:56:57;;;;;;;43.40;21.43;;;;;;;;;;4902401;29;20193;-86
2022/01/09 09:59:34;;;;;;;42.40;20.33;;;-0.50;99.90;;;;;;4905795;29;20242;-87
2022/01/09 10:02:03;;;;;;;38.50;18.90;;;;;;;;;;4922056;29;20280;-86
2022/01/09 10:04:29;;;;;;;44.17;21.27;;;;;;;;;;4919421;29;20205;-86
2022/01/09 10:06:55;;;;;;;37.90;18.40;;;;;;;;;;4914329;29;20281;-86
2022/01/09 10:09:22;;;;;;;37.00;18.33;;;;;;;;;;4914237;29;20290;-88
2022/01/09 10:11:53;;;;;;;32.93;16.70;;;-0.60;99.90;;;;;;4915986;29;20189;-86
2022/01/09 10:14:21;;;;;;;37.30;18.27;;;-0.60;99.90;;;;;;4932339;29;20248;-86
2022/01/09 10:17:16;;;;;;;40.70;17.47;;;-0.50;99.90;;;;;;4928245;29;20215;-84
2022/01/09 10:19:42;;;;;;;52.97;23.10;;;;;;;;;;4918160;29;20647;-86
2022/01/09 10:22:21;;;;;;;44.57;21.30;;;-0.20;99.90;;;;;;4918711;29;20677;-84
2022/01/09 10:24:47;;;;;;;40.80;19.27;;;;;;;;;;4919411;29;20637;-84
2022/01/09 10:27:27;;;;;;;42.10;20.50;;;0.10;99.90;;;;;;4932358;29;20187;-84
2022/01/09 10:29:54;;;;;;;57.83;24.87;;;0.30;99.90;;;;;;4909420;29;20271;-84
2022/01/09 10:32:20;;;;;;;48.27;22.70;;;;;;;;;;4911607;29;20572;-84
2022/01/09 10:35:16;;;;;;;49.93;21.83;;;0.90;99.90;;;;;;4917760;29;20218;-85
2022/01/09 10:37:45;;;;;;;51.53;23.73;;;0.80;99.90;;;;;;4928491;29;20690;-85
2022/01/09 10:40:22;;;;;;;57.07;24.50;;;0.60;99.90;;;;;;4934236;29;20191;-84
2022/01/09 10:43:09;;;;;;;70.97;34.43;;;0.80;99.90;;;;;;4932305;29;20295;-83
2022/01/09 10:45:41;;;;;;;49.93;21.87;;;0.90;99.90;;;;;;4933231;29;20175;-86
2022/01/09 10:48:17;;;;;;;52.00;24.20;;;0.90;99.90;;;;;;4916224;29;20184;-85
2022/01/09 10:50:44;;;;;;;43.77;20.47;;;;;;;;;;4913172;29;20236;-87
2022/01/09 10:53:19;;;;;;;50.23;22.07;;;0.90;99.90;;;;;;4918559;29;20215;-85
2022/01/09 10:55:59;;;;;;;45.97;21.00;;;1.00;99.90;;;;;;4935390;29;20214;-84
2022/01/09 10:58:25;;;;;;;51.90;24.70;;;;;;;;;;4921763;29;20180;-84
2022/01/09 11:01:08;;;;;;;55.00;24.40;;;0.90;99.90;;;;;;4917828;29;20322;-85
2022/01/09 11:03:34;;;;;;;57.77;27.03;;;;;;;;;;4932590;29;20202;-83
2022/01/09 11:06:02;;;;;;;63.37;26.20;;;;;;;;;;4918957;29;20607;-82
2022/01/09 11:08:29;;;;;;;65.30;31.20;;;0.90;99.90;;;;;;4918820;29;20250;-82
2022/01/09 11:10:55;;;;;;;61.90;27.77;;;;;;;;;;4918604;29;20232;-83
2022/01/09 11:13:23;;;;;;;58.80;26.53;;;0.90;99.90;;;;;;4918823;29;20604;-82
2022/01/09 11:18:35;;;;;;;55.00;25.00;;;0.80;99.90;;;;;;4936599;29;20694;-82
2022/01/09 11:21:01;;;;;;;55.17;25.27;;;0.90;99.90;;;;;;4903330;29;20230;-82
2022/01/09 11:23:52;;;;;;;53.17;23.13;;;1.00;99.90;;;;;;4927405;29;20200;-83
2022/01/09 11:26:18;;;;;;;53.07;23.63;;;;;;;;;;4923583;29;20227;-82
2022/01/09 11:28:48;;;;;;;40.47;19.10;;;1.20;99.90;;;;;;4936394;29;20281;-83
2022/01/09 11:31:38;;;;;;;38.10;18.70;;;1.30;99.90;;;;;;4923513;29;20188;-82
2022/01/09 11:34:17;;;;;;;28.80;15.20;;;1.50;99.90;;;;;;4919709;29;20180;-82
2022/01/09 11:37:05;;;;;;;31.70;15.13;;;1.20;99.90;;;;;;4933150;29;20179;-84
2022/01/09 11:39:35;;;;;;;33.13;16.47;;;1.70;99.90;;;;;;4926071;29;20203;-81
2022/01/09 11:42:15;;;;;;;33.37;16.90;;;1.80;99.90;;;;;;4932678;29;20224;-87
2022/01/09 11:44:55;;;;;;;30.97;15.43;;;1.00;99.90;;;;;;4913489;29;20219;-83
2022/01/09 11:47:22;;;;;;;30.03;15.20;;;2.00;99.90;;;;;;4918938;29;20279;-84
2022/01/09 11:49:55;;;;;;;28.90;14.67;;;2.20;99.90;;;;;;4924829;29;20196;-86
2022/01/09 11:52:29;;;;;;;38.77;17.70;;;2.60;99.90;;;;;;4941573;29;20193;-89
2022/01/09 11:54:59;;;;;;;35.10;16.27;;;3.00;99.90;;;;;;4925529;29;20233;-85
2022/01/09 11:57:46;;;;;;;26.77;14.33;;;3.60;99.90;;;;;;4917756;29;20218;-87
2022/01/09 12:00:28;;;;;;;25.93;13.33;;;;;;;;;;4924767;29;20228;-85
2022/01/09 12:02:54;;;;;;;21.87;13.10;;;;;;;;;;4930565;29;20196;-85
2022/01/09 12:05:20;;;;;;;23.60;12.40;;;;;;;;;;4912858;29;20580;-84
2022/01/09 12:07:48;;;;;;;26.27;12.97;;;;;;;;;;4915712;29;20549;-85
2022/01/09 12:10:36;;;;;;;25.10;13.13;;;7.50;99.90;;;;;;4917246;29;20183;-85
2022/01/09 12:13:04;;;;;;;24.27;13.13;;;6.50;99.90;;;;;;4926948;29;20192;-84
2022/01/09 12:15:41;;;;;;;33.03;15.20;;;6.40;99.90;;;;;;4911518;29;20191;-85
2022/01/09 12:18:27;;;;;;;24.33;12.87;;;5.60;99.90;;;;;;4929257;29;20179;-86
2022/01/09 12:20:53;;;;;;;20.47;11.87;;;;;;;;;;4931557;29;20676;-85
2022/01/09 12:23:22;;;;;;;22.50;11.43;;;5.10;99.90;;;;;;4915388;29;20195;-85
2022/01/09 12:25:51;;;;;;;19.93;11.30;;;4.80;99.90;;;;;;4916172;29;20188;-85
2022/01/09 12:28:20;;;;;;;23.23;11.40;;;;;;;;;;4922892;29;20185;-86
2022/01/09 12:30:47;;;;;;;19.07;10.63;;;;;;;;;;4928984;29;20192;-84
2022/01/09 12:33:15;;;;;;;19.90;11.37;;;;;;;;;;4913117;29;20189;-85
2022/01/09 12:35:46;;;;;;;17.67;10.93;;;5.70;99.90;;;;;;4913268;29;20198;-85
2022/01/09 12:38:20;;;;;;;19.23;11.43;;;6.40;99.90;;;;;;4918639;29;20196;-86
2022/01/09 12:40:46;;;;;;;20.43;11.27;;;;;;;;;;4932547;29;20216;-84
2022/01/09 12:43:14;;;;;;;25.30;12.93;;;7.00;97.90;;;;;;4915869;29;20184;-85
2022/01/09 12:45:44;;;;;;;21.93;12.40;;;7.10;94.50;;;;;;4920456;29;20196;-85
2022/01/09 12:48:21;;;;;;;24.97;12.60;;;6.30;99.90;;;;;;4919081;29;20207;-84
2022/01/09 12:50:49;;;;;;;25.03;13.13;;;6.60;95.40;;;;;;4931696;29;20186;-84
2022/01/09 12:53:23;;;;;;;42.77;16.57;;;6.30;99.90;;;;;;4884648;29;20615;-84
2022/01/09 12:55:53;;;;;;;26.50;13.43;;;6.50;99.90;;;;;;4931598;29;20198;-86
2022/01/09 12:58:24;;;;;;;28.33;13.73;;;6.90;92.50;;;;;;4938346;29;20669;-84
2022/01/09 13:00:50;;;;;;;18.80;9.10;;;7.50;99.90;;;;;;4918581;29;20274;-85
2022/01/09 13:03:21;;;;;;;14.80;8.97;;;7.60;82.10;;;;;;4918345;29;20214;-86
2022/01/09 13:05:58;;;;;;;17.80;8.87;;;7.10;99.90;;;;;;4935617;29;20616;-85
2022/01/09 13:08:24;;;;;;;15.27;9.20;;;;;;;;;;4918362;29;20544;-84
2022/01/09 13:10:59;;;;;;;15.47;9.20;;;5.30;94.10;;;;;;4921159;29;20195;-84
2022/01/09 13:13:25;;;;;;;19.50;9.73;;;;;;;;;;4937931;29;20649;-84
2022/01/09 13:15:53;;;;;;;20.00;10.77;;;;;;;;;;4937072;29;20188;-84
2022/01/09 13:18:50;;;;;;;19.27;11.17;;;3.30;99.90;;;;;;4928013;29;20180;-85
2022/01/09 13:21:22;;;;;;;22.77;12.27;;;2.40;99.90;;;;;;4910491;29;20227;-84
2022/01/09 13:24:20;;;;;;;26.47;12.77;;;2.80;99.90;;;;;;4925338;29;20212;-84
2022/01/09 13:26:53;;;;;;;29.77;13.80;;;2.50;99.90;;;;;;4925563;29;20190;-85
2022/01/09 13:29:21;;;;;;;35.60;17.73;;;;;;;;;;4918986;29;20190;-85
2022/01/09 13:32:01;;;;;;;47.27;20.47;;;1.90;99.90;;;;;;4920554;29;20196;-86
2022/01/09 13:34:42;;;;;;;49.53;22.07;;;1.40;99.90;;;;;;4906468;29;20319;-83
2022/01/09 13:37:10;;;;;;;43.93;23.10;;;1.70;99.90;;;;;;4931530;29;20233;-84
2022/01/09 13:39:39;;;;;;;63.33;26.43;;;1.60;99.90;;;;;;4936800;29;20197;-84
2022/01/09 13:42:08;;;;;;;52.70;24.80;;;1.10;99.90;;;;;;4907236;29;20260;-84
2022/01/09 13:44:35;;;;;;;43.93;22.00;;;;;;;;;;4936846;29;20192;-83
2022/01/09 13:47:17;;;;;;;71.57;29.93;;;1.40;99.90;;;;;;4938361;29;20359;-84
2022/01/09 13:49:52;;;;;;;72.40;29.27;;;1.00;99.90;;;;;;4921208;29;20556;-84
2022/01/09 13:52:21;;;;;;;65.37;27.77;;;1.20;99.90;;;;;;4913583;29;20198;-84
2022/01/09 13:55:12;;;;;;;62.90;29.03;;;0.90;99.90;;;;;;4929703;29;20188;-85
2022/01/09 13:57:47;;;;;;;74.20;32.13;;;1.00;99.90;;;;;;4931729;29;20256;-84
2022/01/09 14:00:13;;;;;;;73.70;31.73;;;;;;;;;;4915887;29;20235;-85
2022/01/09 14:02:42;;;;;;;106.50;41.47;;;1.00;99.90;;;;;;4918770;29;20699;-84
2022/01/09 14:05:13;;;;;;;80.37;34.57;;;1.00;99.90;;;;;;4933235;29;20199;-83
2022/01/09 14:07:44;;;;;;;69.97;29.50;;;0.90;99.90;;;;;;4926416;29;20260;-84
2022/01/09 14:10:10;;;;;;;63.20;27.17;;;;;;;;;;4911740;29;20180;-84
2022/01/09 14:12:37;;;;;;;80.17;32.03;;;0.80;99.90;;;;;;4915957;29;20255;-84
2022/01/09 14:15:18;;;;;;;70.03;29.83;;;1.00;99.90;;;;;;4925958;29;20191;-84
2022/01/09 14:17:46;;;;;;;62.93;30.80;;;0.60;99.90;;;;;;4935165;29;20184;-85
2022/01/09 14:20:19;;;;;;;69.77;34.73;;;0.80;99.90;;;;;;4913074;29;20732;-84
2022/01/09 14:22:55;;;;;;;94.00;44.27;;;0.50;99.90;;;;;;4928568;29;20680;-85
2022/01/09 14:25:34;;;;;;;95.10;43.13;;;0.40;99.90;;;;;;4931530;29;20199;-85
2022/01/09 14:28:02;;;;;;;77.43;34.60;;;;;;;;;;4911980;29;20194;-84
2022/01/09 14:30:36;;;;;;;56.77;27.83;;;1.00;99.90;;;;;;4917466;29;20188;-84
2022/01/09 14:33:17;;;;;;;47.20;22.73;;;0.20;99.90;;;;;;4932139;29;20266;-85